sensor_id;sensor_type;location;lat;lon;timestamp;pressure;altitude;pressure_sealevel;temperature;humidity
15193;BME280;7697;51.630;7.484;2024-01-15T00:04:41;-17145.22;;;2.04;100.00
15193;BME280;7697;51.630;7.484;2024-01-15T00:09:43;-17146.06;;;2.06;100.00
15193;BME280;7697;51.630;7.484;2024-01-15T00:14:45;-17146.41;;;2.07;100.00
15193;BME280;7697;51.630;7.484;2024-01-15T00:19:48;-17146.72;;;2.08;100.00
15193;BME280;7697;51.630;7.484;2024-01-15T00:24:50;-17143.38;;;1.98;100.00
15193;BME280;7697;51.630;7.484;2024-01-15T00:29:52;-17147.56;;;2.11;100.00
15193;BME280;7697;51.630;7.484;2024-01-15T00:34:56;-17145.56;;;2.05;100.00
15193;BME280;7697;51.630;7.484;2024-01-15T00:39:58;-17148.56;;;2.14;100.00
15193;BME280;7697;51.630;7.484;2024-01-15T00:45:00;-17150.25;;;2.19;100.00
15193;BME280;7697;51.630;7.484;2024-01-15T00:50:04;-17148.41;;;2.13;100.00
15193;BME280;7697;51.630;7.484;2024-01-15T00:55:07;-17149.56;;;2.17;100.00
15193;BME280;7697;51.630;7.484;2024-01-15T01:00:09;-17149.41;;;2.16;100.00
15193;BME280;7697;51.630;7.484;2024-01-15T01:05:13;-17149.25;;;2.16;100.00
15193;BME280;7697;51.630;7.484;2024-01-15T01:10:15;-17150.91;;;2.21;100.00
15193;BME280;7697;51.630;7.484;2024-01-15T01:15:17;-17149.56;;;2.17;100.00
15193;BME280;7697;51.630;7.484;2024-01-15T01:20:20;-17151.25;;;2.22;100.00
15193;BME280;7697;51.630;7.484;2024-01-15T01:25:22;-17152.44;;;2.25;100.00
15193;BME280;7697;51.630;7.484;2024-01-15T01:30:24;-17151.75;;;2.23;100.00
15193;BME280;7697;51.630;7.484;2024-01-15T01:35:28;-17151.09;;;2.21;100.00
15193;BME280;7697;51.630;7.484;2024-01-15T01:40:30;-17151.59;;;2.23;100.00
15193;BME280;7697;51.630;7.484;2024-01-15T01:45:32;-17151.75;;;2.23;100.00
15193;BME280;7697;51.630;7.484;2024-01-15T01:50:35;-17151.44;;;2.22;100.00
15193;BME280;7697;51.630;7.484;2024-01-15T01:55:38;-17154.78;;;2.33;100.00
15193;BME280;7697;51.630;7.484;2024-01-15T02:00:41;-17151.25;;;2.22;100.00
15193;BME280;7697;51.630;7.484;2024-01-15T02:05:48;-17151.91;;;2.24;100.00
15193;BME280;7697;51.630;7.484;2024-01-15T02:10:51;-17151.91;;;2.24;100.00
15193;BME280;7697;51.630;7.484;2024-01-15T02:15:53;-17151.75;;;2.23;100.00
15193;BME280;7697;51.630;7.484;2024-01-15T02:20:58;-17152.75;;;2.26;100.00
15193;BME280;7697;51.630;7.484;2024-01-15T02:26:13;-17153.78;;;2.30;100.00
15193;BME280;7697;51.630;7.484;2024-01-15T02:31:24;-17151.09;;;2.21;100.00
15193;BME280;7697;51.630;7.484;2024-01-15T02:36:35;-17150.91;;;2.21;100.00
15193;BME280;7697;51.630;7.484;2024-01-15T04:35:38;-17149.41;;;2.16;100.00
15193;BME280;7697;51.630;7.484;2024-01-15T04:41:13;-17149.56;;;2.17;100.00
15193;BME280;7697;51.630;7.484;2024-01-15T04:46:47;-17150.41;;;2.19;100.00
15193;BME280;7697;51.630;7.484;2024-01-15T04:52:31;-17152.59;;;2.26;100.00
15193;BME280;7697;51.630;7.484;2024-01-15T04:58:18;-17152.75;;;2.26;100.00
15193;BME280;7697;51.630;7.484;2024-01-15T05:04:03;-17155.59;;;2.35;100.00
15193;BME280;7697;51.630;7.484;2024-01-15T05:09:30;-17152.25;;;2.25;100.00
15193;BME280;7697;51.630;7.484;2024-01-15T05:14:43;-17152.44;;;2.25;100.00
15193;BME280;7697;51.630;7.484;2024-01-15T05:20:09;-17153.44;;;2.29;100.00
15193;BME280;7697;51.630;7.484;2024-01-15T05:25:40;-17156.13;;;2.37;100.00
15193;BME280;7697;51.630;7.484;2024-01-15T05:30:48;-17157.28;;;2.40;100.00
15193;BME280;7697;51.630;7.484;2024-01-15T05:35:53;-17154.59;;;2.32;100.00
15193;BME280;7697;51.630;7.484;2024-01-15T05:40:58;-17155.44;;;2.35;100.00
15193;BME280;7697;51.630;7.484;2024-01-15T05:46:00;-17156.44;;;2.38;100.00
15193;BME280;7697;51.630;7.484;2024-01-15T05:51:04;-17157.97;;;2.42;100.00
15193;BME280;7697;51.630;7.484;2024-01-15T05:56:07;-17160.13;;;2.49;100.00
15193;BME280;7697;51.630;7.484;2024-01-15T06:01:11;-17156.63;;;2.38;100.00
15193;BME280;7697;51.630;7.484;2024-01-15T06:06:13;-17159.63;;;2.47;100.00
15193;BME280;7697;51.630;7.484;2024-01-15T06:11:17;-17160.81;;;2.51;100.00
15193;BME280;7697;51.630;7.484;2024-01-15T06:16:20;-17158.97;;;2.45;100.00
15193;BME280;7697;51.630;7.484;2024-01-15T06:21:26;-17158.78;;;2.45;100.00
15193;BME280;7697;51.630;7.484;2024-01-15T06:26:42;-17159.13;;;2.46;100.00
15193;BME280;7697;51.630;7.484;2024-01-15T06:32:08;-17161.81;;;2.54;100.00
15193;BME280;7697;51.630;7.484;2024-01-15T06:37:44;-17159.13;;;2.46;100.00
15193;BME280;7697;51.630;7.484;2024-01-15T06:42:50;-17158.97;;;2.45;100.00
15193;BME280;7697;51.630;7.484;2024-01-15T06:47:54;-17158.78;;;2.45;100.00
15193;BME280;7697;51.630;7.484;2024-01-15T06:53:00;-17160.13;;;2.49;100.00
15193;BME280;7697;51.630;7.484;2024-01-15T06:58:06;-17158.97;;;2.45;100.00
15193;BME280;7697;51.630;7.484;2024-01-15T07:03:16;-17159.63;;;2.47;100.00
15193;BME280;7697;51.630;7.484;2024-01-15T07:08:20;-17161.13;;;2.52;100.00
15193;BME280;7697;51.630;7.484;2024-01-15T07:13:28;-17160.13;;;2.49;100.00
15193;BME280;7697;51.630;7.484;2024-01-15T07:18:34;-17162.47;;;2.56;100.00
15193;BME280;7697;51.630;7.484;2024-01-15T07:23:38;-17162.31;;;2.55;100.00
15193;BME280;7697;51.630;7.484;2024-01-15T07:28:42;-17162.47;;;2.56;100.00
15193;BME280;7697;51.630;7.484;2024-01-15T07:33:46;-17162.47;;;2.56;100.00
15193;BME280;7697;51.630;7.484;2024-01-15T07:38:47;-17163.16;;;2.58;100.00
15193;BME280;7697;51.630;7.484;2024-01-15T07:43:51;-17162.47;;;2.56;100.00
15193;BME280;7697;51.630;7.484;2024-01-15T07:48:53;-17160.13;;;2.49;100.00
15193;BME280;7697;51.630;7.484;2024-01-15T07:53:56;-17162.31;;;2.55;100.00
15193;BME280;7697;51.630;7.484;2024-01-15T07:59:00;-17159.13;;;2.46;100.00
15193;BME280;7697;51.630;7.484;2024-01-15T08:04:01;-17158.97;;;2.45;100.00
15193;BME280;7697;51.630;7.484;2024-01-15T08:09:03;-17156.28;;;2.37;100.00
15193;BME280;7697;51.630;7.484;2024-01-15T08:14:07;-17155.78;;;2.36;100.00
15193;BME280;7697;51.630;7.484;2024-01-15T08:19:09;-17154.44;;;2.32;100.00
15193;BME280;7697;51.630;7.484;2024-01-15T08:24:10;-17154.78;;;2.33;100.00
15193;BME280;7697;51.630;7.484;2024-01-15T08:29:14;-17155.44;;;2.35;100.00
15193;BME280;7697;51.630;7.484;2024-01-15T08:34:18;-17157.63;;;2.41;100.00
15193;BME280;7697;51.630;7.484;2024-01-15T08:39:20;-17158.28;;;2.43;100.00
15193;BME280;7697;51.630;7.484;2024-01-15T08:44:23;-17157.97;;;2.42;100.00
15193;BME280;7697;51.630;7.484;2024-01-15T08:49:25;-17155.09;;;2.34;100.00
15193;BME280;7697;51.630;7.484;2024-01-15T08:54:27;-17153.78;;;2.30;100.00
15193;BME280;7697;51.630;7.484;2024-01-15T08:59:31;-17157.63;;;2.41;100.00
15193;BME280;7697;51.630;7.484;2024-01-15T09:04:32;-17155.28;;;2.34;100.00
15193;BME280;7697;51.630;7.484;2024-01-15T09:09:34;-17155.09;;;2.34;100.00
15193;BME280;7697;51.630;7.484;2024-01-15T09:14:38;-17153.94;;;2.30;100.00
15193;BME280;7697;51.630;7.484;2024-01-15T09:19:40;-17157.13;;;2.40;100.00
15193;BME280;7697;51.630;7.484;2024-01-15T09:24:42;-17156.13;;;2.37;100.00
15193;BME280;7697;51.630;7.484;2024-01-15T09:29:45;-17158.78;;;2.45;100.00
15193;BME280;7697;51.630;7.484;2024-01-15T09:34:47;-17160.31;;;2.49;100.00
15193;BME280;7697;51.630;7.484;2024-01-15T09:39:48;-17157.78;;;2.42;100.00
15193;BME280;7697;51.630;7.484;2024-01-15T09:44:52;-17156.78;;;2.39;100.00
15193;BME280;7697;51.630;7.484;2024-01-15T09:49:57;-17156.44;;;2.38;100.00
15193;BME280;7697;51.630;7.484;2024-01-15T09:55:04;-17159.47;;;2.47;100.00
15193;BME280;7697;51.630;7.484;2024-01-15T10:00:09;-17160.13;;;2.49;100.00
15193;BME280;7697;51.630;7.484;2024-01-15T10:05:12;-17158.13;;;2.43;100.00
15193;BME280;7697;51.630;7.484;2024-01-15T10:10:14;-17161.66;;;2.53;100.00
15193;BME280;7697;51.630;7.484;2024-01-15T10:15:22;-17158.97;;;2.45;100.00
15193;BME280;7697;51.630;7.484;2024-01-15T10:20:24;-17161.81;;;2.54;100.00
15193;BME280;7697;51.630;7.484;2024-01-15T10:25:29;-17163.00;;;2.57;100.00
15193;BME280;7697;51.630;7.484;2024-01-15T10:30:33;-17160.81;;;2.51;100.00
15193;BME280;7697;51.630;7.484;2024-01-15T10:35:35;-17161.81;;;2.54;100.00
15193;BME280;7697;51.630;7.484;2024-01-15T10:40:36;-17159.47;;;2.47;100.00
15193;BME280;7697;51.630;7.484;2024-01-15T10:45:40;-17160.97;;;2.51;100.00
15193;BME280;7697;51.630;7.484;2024-01-15T10:50:44;-17159.97;;;2.48;100.00
15193;BME280;7697;51.630;7.484;2024-01-15T10:55:47;-17163.31;;;2.58;100.00
15193;BME280;7697;51.630;7.484;2024-01-15T11:00:51;-17160.81;;;2.51;100.00
15193;BME280;7697;51.630;7.484;2024-01-15T11:05:55;-17160.47;;;2.50;100.00
15193;BME280;7697;51.630;7.484;2024-01-15T11:10:57;-17166.00;;;2.67;100.00
15193;BME280;7697;51.630;7.484;2024-01-15T11:16:02;-17167.84;;;2.72;100.00
15193;BME280;7697;51.630;7.484;2024-01-15T11:21:25;-17170.19;;;2.79;100.00
15193;BME280;7697;51.630;7.484;2024-01-15T11:26:35;-17168.84;;;2.75;100.00
15193;BME280;7697;51.630;7.484;2024-01-15T11:31:58;-17172.53;;;2.86;100.00
15193;BME280;7697;51.630;7.484;2024-01-15T11:37:01;-17171.38;;;2.83;100.00
15193;BME280;7697;51.630;7.484;2024-01-15T11:42:04;-17172.88;;;2.87;100.00
15193;BME280;7697;51.630;7.484;2024-01-15T11:47:08;-17174.22;;;2.91;100.00
15193;BME280;7697;51.630;7.484;2024-01-15T11:52:17;-17174.03;;;2.91;100.00
15193;BME280;7697;51.630;7.484;2024-01-15T11:57:45;-17176.56;;;2.98;100.00
15193;BME280;7697;51.630;7.484;2024-01-15T13:57:41;-17186.44;;;3.28;100.00
15193;BME280;7697;51.630;7.484;2024-01-15T14:02:49;-17182.94;;;3.18;100.00
15193;BME280;7697;51.630;7.484;2024-01-15T14:07:51;-17179.91;;;3.09;100.00
15193;BME280;7697;51.630;7.484;2024-01-15T14:12:55;-17181.59;;;3.14;100.00
15193;BME280;7697;51.630;7.484;2024-01-15T14:17:58;-17180.25;;;3.10;100.00
15193;BME280;7697;51.630;7.484;2024-01-15T14:23:02;-17180.25;;;3.10;100.00
15193;BME280;7697;51.630;7.484;2024-01-15T14:28:27;-17182.75;;;3.17;100.00
15193;BME280;7697;51.630;7.484;2024-01-15T14:33:31;-17184.28;;;3.22;100.00
15193;BME280;7697;51.630;7.484;2024-01-15T14:38:45;-17183.44;;;3.19;100.00
15193;BME280;7697;51.630;7.484;2024-01-15T14:44:15;-17183.25;;;3.19;100.00
15193;BME280;7697;51.630;7.484;2024-01-15T14:49:24;-17180.25;;;3.10;100.00
15193;BME280;7697;51.630;7.484;2024-01-15T14:54:31;-17176.91;;;2.99;100.00
15193;BME280;7697;51.630;7.484;2024-01-15T14:59:41;-17178.06;;;3.03;100.00
15193;BME280;7697;51.630;7.484;2024-01-15T15:04:47;-17177.22;;;3.00;100.00
15193;BME280;7697;51.630;7.484;2024-01-15T15:09:50;-17176.56;;;2.98;100.00
15193;BME280;7697;51.630;7.484;2024-01-15T15:14:55;-17175.56;;;2.95;100.00
15193;BME280;7697;51.630;7.484;2024-01-15T15:19:58;-17175.22;;;2.94;100.00
15193;BME280;7697;51.630;7.484;2024-01-15T15:25:03;-17172.69;;;2.87;100.00
15193;BME280;7697;51.630;7.484;2024-01-15T15:30:10;-17171.03;;;2.82;100.00
15193;BME280;7697;51.630;7.484;2024-01-15T15:35:13;-17171.38;;;2.83;100.00
15193;BME280;7697;51.630;7.484;2024-01-15T15:40:15;-17172.88;;;2.87;100.00
15193;BME280;7697;51.630;7.484;2024-01-15T15:45:19;-17170.69;;;2.81;100.00
15193;BME280;7697;51.630;7.484;2024-01-15T15:50:20;-17169.03;;;2.76;100.00
15193;BME280;7697;51.630;7.484;2024-01-15T15:55:22;-17166.50;;;2.68;100.00
15193;BME280;7697;51.630;7.484;2024-01-15T16:00:25;-17165.50;;;2.65;100.00
15193;BME280;7697;51.630;7.484;2024-01-15T16:05:27;-17161.81;;;2.54;100.00
15193;BME280;7697;51.630;7.484;2024-01-15T16:10:28;-17161.81;;;2.54;100.00
15193;BME280;7697;51.630;7.484;2024-01-15T16:15:32;-17157.28;;;2.40;100.00
15193;BME280;7697;51.630;7.484;2024-01-15T16:20:35;-17157.13;;;2.40;100.00
15193;BME280;7697;51.630;7.484;2024-01-15T16:25:36;-17155.28;;;2.34;100.00
15193;BME280;7697;51.630;7.484;2024-01-15T16:30:41;-17155.09;;;2.34;100.00
15193;BME280;7697;51.630;7.484;2024-01-15T16:35:42;-17151.75;;;2.23;100.00
15193;BME280;7697;51.630;7.484;2024-01-15T16:40:44;-17149.06;;;2.15;100.00
15193;BME280;7697;51.630;7.484;2024-01-15T16:45:47;-17148.41;;;2.13;100.00
15193;BME280;7697;51.630;7.484;2024-01-15T16:50:49;-17151.09;;;2.21;100.00
15193;BME280;7697;51.630;7.484;2024-01-15T16:55:53;-17150.91;;;2.21;100.00
15193;BME280;7697;51.630;7.484;2024-01-15T17:00:56;-17148.91;;;2.15;100.00
15193;BME280;7697;51.630;7.484;2024-01-15T17:05:59;-17149.56;;;2.17;100.00
15193;BME280;7697;51.630;7.484;2024-01-15T17:11:01;-17147.41;;;2.10;100.00
15193;BME280;7697;51.630;7.484;2024-01-15T17:16:05;-17149.91;;;2.18;100.00
15193;BME280;7697;51.630;7.484;2024-01-15T17:21:07;-17149.25;;;2.16;100.00
15193;BME280;7697;51.630;7.484;2024-01-15T17:26:09;-17149.41;;;2.16;100.00
15193;BME280;7697;51.630;7.484;2024-01-15T17:31:12;-17149.41;;;2.16;100.00
15193;BME280;7697;51.630;7.484;2024-01-15T17:36:14;-17148.91;;;2.15;100.00
15193;BME280;7697;51.630;7.484;2024-01-15T17:41:16;-17149.75;;;2.17;100.00
15193;BME280;7697;51.630;7.484;2024-01-15T17:46:19;-17151.75;;;2.23;100.00
15193;BME280;7697;51.630;7.484;2024-01-15T17:51:21;-17152.59;;;2.26;100.00
15193;BME280;7697;51.630;7.484;2024-01-15T17:56:23;-17151.44;;;2.22;100.00
15193;BME280;7697;51.630;7.484;2024-01-15T18:01:26;-17153.94;;;2.30;100.00
15193;BME280;7697;51.630;7.484;2024-01-15T18:06:28;-17152.25;;;2.25;100.00
15193;BME280;7697;51.630;7.484;2024-01-15T18:11:30;-17153.78;;;2.30;100.00
15193;BME280;7697;51.630;7.484;2024-01-15T18:16:34;-17154.09;;;2.31;100.00
15193;BME280;7697;51.630;7.484;2024-01-15T18:21:35;-17153.44;;;2.29;100.00
15193;BME280;7697;51.630;7.484;2024-01-15T18:26:37;-17154.28;;;2.31;100.00
15193;BME280;7697;51.630;7.484;2024-01-15T18:31:41;-17156.94;;;2.39;100.00
15193;BME280;7697;51.630;7.484;2024-01-15T18:36:43;-17157.63;;;2.41;100.00
15193;BME280;7697;51.630;7.484;2024-01-15T18:41:46;-17160.47;;;2.50;100.00
15193;BME280;7697;51.630;7.484;2024-01-15T18:46:50;-17161.13;;;2.52;100.00
15193;BME280;7697;51.630;7.484;2024-01-15T18:51:52;-17159.81;;;2.48;100.00
15193;BME280;7697;51.630;7.484;2024-01-15T18:56:56;-17161.47;;;2.53;100.00
15193;BME280;7697;51.630;7.484;2024-01-15T19:02:00;-17164.00;;;2.60;100.00
15193;BME280;7697;51.630;7.484;2024-01-15T19:07:01;-17162.16;;;2.55;100.00
15193;BME280;7697;51.630;7.484;2024-01-15T19:12:04;-17162.66;;;2.56;100.00
15193;BME280;7697;51.630;7.484;2024-01-15T19:17:08;-17165.50;;;2.65;100.00
15193;BME280;7697;51.630;7.484;2024-01-15T19:22:10;-17164.31;;;2.61;100.00
15193;BME280;7697;51.630;7.484;2024-01-15T19:27:11;-17163.31;;;2.58;100.00
15193;BME280;7697;51.630;7.484;2024-01-15T19:32:15;-17166.84;;;2.69;100.00
15193;BME280;7697;51.630;7.484;2024-01-15T19:37:17;-17163.16;;;2.58;100.00
15193;BME280;7697;51.630;7.484;2024-01-15T19:42:19;-17164.16;;;2.61;100.00
15193;BME280;7697;51.630;7.484;2024-01-15T19:47:22;-17164.81;;;2.63;100.00
15193;BME280;7697;51.630;7.484;2024-01-15T19:52:23;-17163.50;;;2.59;100.00
15193;BME280;7697;51.630;7.484;2024-01-15T19:57:25;-17161.47;;;2.53;100.00
15193;BME280;7697;51.630;7.484;2024-01-15T20:02:28;-17160.31;;;2.49;100.00
15193;BME280;7697;51.630;7.484;2024-01-15T20:07:30;-17159.47;;;2.47;100.00
15193;BME280;7697;51.630;7.484;2024-01-15T20:12:31;-17161.31;;;2.52;100.00
15193;BME280;7697;51.630;7.484;2024-01-15T20:17:35;-17159.13;;;2.46;100.00
15193;BME280;7697;51.630;7.484;2024-01-15T20:22:36;-17161.81;;;2.54;100.00
15193;BME280;7697;51.630;7.484;2024-01-15T20:27:38;-17162.66;;;2.56;100.00
15193;BME280;7697;51.630;7.484;2024-01-15T20:32:41;-17162.81;;;2.57;100.00
15193;BME280;7697;51.630;7.484;2024-01-15T20:37:43;-17164.16;;;2.61;100.00
15193;BME280;7697;51.630;7.484;2024-01-15T20:42:45;-17165.50;;;2.65;100.00
15193;BME280;7697;51.630;7.484;2024-01-15T20:47:48;-17164.16;;;2.61;100.00
15193;BME280;7697;51.630;7.484;2024-01-15T20:52:50;-17162.81;;;2.57;100.00
15193;BME280;7697;51.630;7.484;2024-01-15T20:57:52;-17162.81;;;2.57;100.00
15193;BME280;7697;51.630;7.484;2024-01-15T21:02:55;-17159.28;;;2.46;100.00
15193;BME280;7697;51.630;7.484;2024-01-15T21:07:57;-17160.81;;;2.51;100.00
15193;BME280;7697;51.630;7.484;2024-01-15T21:12:58;-17160.81;;;2.51;100.00
15193;BME280;7697;51.630;7.484;2024-01-15T21:18:01;-17158.13;;;2.43;100.00
15193;BME280;7697;51.630;7.484;2024-01-15T21:23:03;-17157.13;;;2.40;100.00
15193;BME280;7697;51.630;7.484;2024-01-15T21:28:05;-17156.63;;;2.38;100.00
15193;BME280;7697;51.630;7.484;2024-01-15T21:33:09;-17155.78;;;2.36;100.00
15193;BME280;7697;51.630;7.484;2024-01-15T21:38:11;-17153.78;;;2.30;100.00
15193;BME280;7697;51.630;7.484;2024-01-15T21:43:13;-17155.59;;;2.35;100.00
15193;BME280;7697;51.630;7.484;2024-01-15T21:48:16;-17157.13;;;2.40;100.00
15193;BME280;7697;51.630;7.484;2024-01-15T21:53:18;-17156.78;;;2.39;100.00
15193;BME280;7697;51.630;7.484;2024-01-15T21:58:23;-17154.44;;;2.32;100.00
15193;BME280;7697;51.630;7.484;2024-01-15T22:03:26;-17156.44;;;2.38;100.00
15193;BME280;7697;51.630;7.484;2024-01-15T22:08:28;-17153.09;;;2.28;100.00
15193;BME280;7697;51.630;7.484;2024-01-15T22:13:30;-17156.13;;;2.37;100.00
15193;BME280;7697;51.630;7.484;2024-01-15T22:18:34;-17155.09;;;2.34;100.00
15193;BME280;7697;51.630;7.484;2024-01-15T22:23:36;-17153.09;;;2.28;100.00
15193;BME280;7697;51.630;7.484;2024-01-15T22:28:38;-17153.44;;;2.29;100.00
15193;BME280;7697;51.630;7.484;2024-01-15T22:33:41;-17152.44;;;2.25;100.00
15193;BME280;7697;51.630;7.484;2024-01-15T22:38:42;-17154.28;;;2.31;100.00
15193;BME280;7697;51.630;7.484;2024-01-15T22:43:44;-17153.94;;;2.30;100.00
15193;BME280;7697;51.630;7.484;2024-01-15T22:48:47;-17152.75;;;2.26;100.00
15193;BME280;7697;51.630;7.484;2024-01-15T22:53:49;-17154.09;;;2.31;100.00
15193;BME280;7697;51.630;7.484;2024-01-15T22:58:50;-17153.09;;;2.28;100.00
15193;BME280;7697;51.630;7.484;2024-01-15T23:03:54;-17149.91;;;2.18;100.00
15193;BME280;7697;51.630;7.484;2024-01-15T23:08:55;-17152.09;;;2.24;100.00
15193;BME280;7697;51.630;7.484;2024-01-15T23:13:57;-17151.59;;;2.23;100.00
15193;BME280;7697;51.630;7.484;2024-01-15T23:19:00;-17149.41;;;2.16;100.00
15193;BME280;7697;51.630;7.484;2024-01-15T23:24:02;-17151.44;;;2.22;100.00
15193;BME280;7697;51.630;7.484;2024-01-15T23:29:04;-17152.25;;;2.25;100.00
15193;BME280;7697;51.630;7.484;2024-01-15T23:34:07;-17150.91;;;2.21;100.00
15193;BME280;7697;51.630;7.484;2024-01-15T23:39:09;-17149.75;;;2.17;100.00
15193;BME280;7697;51.630;7.484;2024-01-15T23:44:11;-17150.25;;;2.19;100.00
15193;BME280;7697;51.630;7.484;2024-01-15T23:49:14;-17150.59;;;2.20;100.00
15193;BME280;7697;51.630;7.484;2024-01-15T23:54:16;-17152.59;;;2.26;100.00
15193;BME280;7697;51.630;7.484;2024-01-15T23:59:18;-17149.75;;;2.17;100.00
